sensor_id;sensor_type;location;lat;lon;timestamp;P1;durP1;ratioP1;P2;durP2;ratioP2
17993;SDS011;9122;48.406;9.984;2022-08-05T00:00:31;7.40;;;5.18;;
17993;SDS011;9122;48.406;9.984;2022-08-05T00:03:16;5.32;;;4.55;;
17993;SDS011;9122;48.406;9.984;2022-08-05T00:06:01;5.65;;;5.15;;
17993;SDS011;9122;48.406;9.984;2022-08-05T00:08:45;5.22;;;4.82;;
17993;SDS011;9122;48.406;9.984;2022-08-05T00:11:30;5.68;;;5.15;;
17993;SDS011;9122;48.406;9.984;2022-08-05T00:14:15;5.25;;;4.85;;
17993;SDS011;9122;48.406;9.984;2022-08-05T00:17:00;5.90;;;5.35;;
17993;SDS011;9122;48.406;9.984;2022-08-05T00:19:44;5.57;;;5.15;;
17993;SDS011;9122;48.406;9.984;2022-08-05T00:22:29;5.45;;;5.05;;
17993;SDS011;9122;48.406;9.984;2022-08-05T00:25:13;5.22;;;4.88;;
17993;SDS011;9122;48.406;9.984;2022-08-05T00:27:58;5.50;;;4.75;;
17993;SDS011;9122;48.406;9.984;2022-08-05T00:30:43;5.75;;;5.18;;
17993;SDS011;9122;48.406;9.984;2022-08-05T00:33:27;7.65;;;6.22;;
17993;SDS011;9122;48.406;9.984;2022-08-05T00:36:12;6.43;;;4.93;;
17993;SDS011;9122;48.406;9.984;2022-08-05T00:38:56;7.68;;;5.40;;
17993;SDS011;9122;48.406;9.984;2022-08-05T00:41:44;5.68;;;4.70;;
17993;SDS011;9122;48.406;9.984;2022-08-05T00:44:29;5.65;;;5.05;;
17993;SDS011;9122;48.406;9.984;2022-08-05T00:47:13;8.43;;;5.43;;
17993;SDS011;9122;48.406;9.984;2022-08-05T00:49:58;5.18;;;4.78;;
17993;SDS011;9122;48.406;9.984;2022-08-05T00:52:42;5.82;;;5.32;;
17993;SDS011;9122;48.406;9.984;2022-08-05T00:55:27;5.50;;;5.07;;
17993;SDS011;9122;48.406;9.984;2022-08-05T00:58:12;5.60;;;4.97;;
17993;SDS011;9122;48.406;9.984;2022-08-05T01:00:59;6.35;;;5.50;;
17993;SDS011;9122;48.406;9.984;2022-08-05T01:03:43;6.25;;;5.75;;
17993;SDS011;9122;48.406;9.984;2022-08-05T01:06:28;5.80;;;5.05;;
17993;SDS011;9122;48.406;9.984;2022-08-05T01:09:12;5.63;;;5.18;;
17993;SDS011;9122;48.406;9.984;2022-08-05T01:11:58;5.63;;;5.22;;
17993;SDS011;9122;48.406;9.984;2022-08-05T01:14:58;6.53;;;5.50;;
17993;SDS011;9122;48.406;9.984;2022-08-05T01:17:48;6.00;;;5.20;;
17993;SDS011;9122;48.406;9.984;2022-08-05T01:20:49;5.55;;;5.15;;
17993;SDS011;9122;48.406;9.984;2022-08-05T01:29:39;5.75;;;5.25;;
17993;SDS011;9122;48.406;9.984;2022-08-05T01:32:27;7.57;;;5.80;;
17993;SDS011;9122;48.406;9.984;2022-08-05T01:35:16;6.57;;;5.35;;
17993;SDS011;9122;48.406;9.984;2022-08-05T01:38:04;5.82;;;5.22;;
17993;SDS011;9122;48.406;9.984;2022-08-05T01:40:51;8.63;;;5.28;;
17993;SDS011;9122;48.406;9.984;2022-08-05T01:43:37;5.60;;;5.20;;
17993;SDS011;9122;48.406;9.984;2022-08-05T01:46:22;6.45;;;5.75;;
17993;SDS011;9122;48.406;9.984;2022-08-05T01:49:09;6.03;;;5.43;;
17993;SDS011;9122;48.406;9.984;2022-08-05T01:51:57;6.72;;;6.03;;
17993;SDS011;9122;48.406;9.984;2022-08-05T01:54:45;8.82;;;5.40;;
17993;SDS011;9122;48.406;9.984;2022-08-05T01:57:37;6.03;;;5.53;;
17993;SDS011;9122;48.406;9.984;2022-08-05T02:00:25;5.95;;;5.38;;
17993;SDS011;9122;48.406;9.984;2022-08-05T02:06:20;5.60;;;5.20;;
17993;SDS011;9122;48.406;9.984;2022-08-05T02:09:04;5.13;;;4.82;;
17993;SDS011;9122;48.406;9.984;2022-08-05T02:14:45;8.32;;;6.15;;
17993;SDS011;9122;48.406;9.984;2022-08-05T02:17:37;13.05;;;5.90;;
17993;SDS011;9122;48.406;9.984;2022-08-05T02:21:15;5.53;;;5.13;;
17993;SDS011;9122;48.406;9.984;2022-08-05T02:23:42;7.28;;;5.43;;
17993;SDS011;9122;48.406;9.984;2022-08-05T02:26:34;7.20;;;4.53;;
17993;SDS011;9122;48.406;9.984;2022-08-05T02:29:32;5.35;;;4.95;;
17993;SDS011;9122;48.406;9.984;2022-08-05T02:32:19;6.20;;;5.68;;
17993;SDS011;9122;48.406;9.984;2022-08-05T02:35:07;6.20;;;5.63;;
17993;SDS011;9122;48.406;9.984;2022-08-05T02:37:55;8.15;;;5.72;;
17993;SDS011;9122;48.406;9.984;2022-08-05T02:40:41;7.22;;;5.40;;
17993;SDS011;9122;48.406;9.984;2022-08-05T02:43:27;5.85;;;5.35;;
17993;SDS011;9122;48.406;9.984;2022-08-05T02:46:14;6.47;;;5.95;;
17993;SDS011;9122;48.406;9.984;2022-08-05T02:48:59;7.13;;;6.40;;
17993;SDS011;9122;48.406;9.984;2022-08-05T02:51:44;9.02;;;5.65;;
17993;SDS011;9122;48.406;9.984;2022-08-05T02:54:31;10.00;;;5.47;;
17993;SDS011;9122;48.406;9.984;2022-08-05T02:57:17;5.70;;;5.20;;
17993;SDS011;9122;48.406;9.984;2022-08-05T03:00:03;6.57;;;5.97;;
17993;SDS011;9122;48.406;9.984;2022-08-05T03:02:48;6.20;;;5.72;;
17993;SDS011;9122;48.406;9.984;2022-08-05T03:05:34;5.35;;;4.95;;
17993;SDS011;9122;48.406;9.984;2022-08-05T03:08:20;6.25;;;5.82;;
17993;SDS011;9122;48.406;9.984;2022-08-05T03:11:20;5.50;;;4.93;;
17993;SDS011;9122;48.406;9.984;2022-08-05T03:14:05;8.77;;;6.07;;
17993;SDS011;9122;48.406;9.984;2022-08-05T03:16:50;6.45;;;5.90;;
17993;SDS011;9122;48.406;9.984;2022-08-05T03:19:34;10.93;;;5.68;;
17993;SDS011;9122;48.406;9.984;2022-08-05T03:22:19;5.63;;;5.13;;
17993;SDS011;9122;48.406;9.984;2022-08-05T03:25:03;5.82;;;5.43;;
17993;SDS011;9122;48.406;9.984;2022-08-05T03:27:49;5.88;;;5.32;;
17993;SDS011;9122;48.406;9.984;2022-08-05T03:30:34;6.30;;;5.75;;
17993;SDS011;9122;48.406;9.984;2022-08-05T03:33:19;5.30;;;5.00;;
17993;SDS011;9122;48.406;9.984;2022-08-05T03:36:03;7.32;;;5.88;;
17993;SDS011;9122;48.406;9.984;2022-08-05T03:38:48;5.95;;;5.45;;
17993;SDS011;9122;48.406;9.984;2022-08-05T03:41:33;6.07;;;5.57;;
17993;SDS011;9122;48.406;9.984;2022-08-05T03:44:18;5.78;;;5.28;;
17993;SDS011;9122;48.406;9.984;2022-08-05T03:47:02;5.93;;;5.47;;
17993;SDS011;9122;48.406;9.984;2022-08-05T03:49:46;5.88;;;5.40;;
17993;SDS011;9122;48.406;9.984;2022-08-05T03:52:32;5.88;;;5.38;;
17993;SDS011;9122;48.406;9.984;2022-08-05T03:55:25;5.65;;;5.25;;
17993;SDS011;9122;48.406;9.984;2022-08-05T03:58:15;5.95;;;5.20;;
17993;SDS011;9122;48.406;9.984;2022-08-05T04:01:02;5.45;;;4.95;;
17993;SDS011;9122;48.406;9.984;2022-08-05T04:03:50;5.35;;;4.47;;
17993;SDS011;9122;48.406;9.984;2022-08-05T04:06:35;6.00;;;5.40;;
17993;SDS011;9122;48.406;9.984;2022-08-05T04:09:20;4.88;;;4.55;;
17993;SDS011;9122;48.406;9.984;2022-08-05T04:12:06;5.18;;;4.80;;
17993;SDS011;9122;48.406;9.984;2022-08-05T04:14:51;4.60;;;4.28;;
17993;SDS011;9122;48.406;9.984;2022-08-05T04:17:37;4.75;;;4.32;;
17993;SDS011;9122;48.406;9.984;2022-08-05T04:20:22;5.18;;;4.57;;
17993;SDS011;9122;48.406;9.984;2022-08-05T04:23:07;4.45;;;4.15;;
17993;SDS011;9122;48.406;9.984;2022-08-05T04:25:53;4.35;;;4.15;;
17993;SDS011;9122;48.406;9.984;2022-08-05T04:28:37;4.40;;;4.05;;
17993;SDS011;9122;48.406;9.984;2022-08-05T04:31:23;5.93;;;4.22;;
17993;SDS011;9122;48.406;9.984;2022-08-05T04:34:07;4.32;;;3.92;;
17993;SDS011;9122;48.406;9.984;2022-08-05T04:36:52;4.50;;;4.20;;
17993;SDS011;9122;48.406;9.984;2022-08-05T04:39:36;4.65;;;3.85;;
17993;SDS011;9122;48.406;9.984;2022-08-05T04:42:21;4.05;;;3.35;;
17993;SDS011;9122;48.406;9.984;2022-08-05T04:45:05;3.83;;;3.53;;
17993;SDS011;9122;48.406;9.984;2022-08-05T04:47:50;4.55;;;4.25;;
17993;SDS011;9122;48.406;9.984;2022-08-05T04:50:42;4.28;;;3.97;;
17993;SDS011;9122;48.406;9.984;2022-08-05T04:53:28;4.28;;;3.88;;
17993;SDS011;9122;48.406;9.984;2022-08-05T04:56:12;3.88;;;3.67;;
17993;SDS011;9122;48.406;9.984;2022-08-05T04:58:57;4.57;;;4.10;;
17993;SDS011;9122;48.406;9.984;2022-08-05T05:01:42;5.15;;;4.47;;
17993;SDS011;9122;48.406;9.984;2022-08-05T05:04:26;6.25;;;4.45;;
17993;SDS011;9122;48.406;9.984;2022-08-05T05:07:11;6.47;;;4.43;;
17993;SDS011;9122;48.406;9.984;2022-08-05T05:09:56;5.95;;;3.70;;
17993;SDS011;9122;48.406;9.984;2022-08-05T05:12:40;3.85;;;3.47;;
17993;SDS011;9122;48.406;9.984;2022-08-05T05:15:24;4.95;;;4.60;;
17993;SDS011;9122;48.406;9.984;2022-08-05T05:18:11;4.43;;;3.88;;
17993;SDS011;9122;48.406;9.984;2022-08-05T05:20:57;9.88;;;4.47;;
17993;SDS011;9122;48.406;9.984;2022-08-05T05:23:42;10.02;;;4.53;;
17993;SDS011;9122;48.406;9.984;2022-08-05T05:26:26;5.32;;;4.07;;
17993;SDS011;9122;48.406;9.984;2022-08-05T05:29:11;8.02;;;4.35;;
17993;SDS011;9122;48.406;9.984;2022-08-05T05:31:55;5.18;;;4.00;;
17993;SDS011;9122;48.406;9.984;2022-08-05T05:34:40;4.30;;;3.90;;
17993;SDS011;9122;48.406;9.984;2022-08-05T05:37:24;4.68;;;3.88;;
17993;SDS011;9122;48.406;9.984;2022-08-05T05:40:09;6.45;;;4.93;;
17993;SDS011;9122;48.406;9.984;2022-08-05T05:42:57;8.57;;;4.22;;
17993;SDS011;9122;48.406;9.984;2022-08-05T05:45:41;9.10;;;4.43;;
17993;SDS011;9122;48.406;9.984;2022-08-05T05:48:26;9.10;;;4.50;;
17993;SDS011;9122;48.406;9.984;2022-08-05T05:51:10;4.70;;;4.07;;
17993;SDS011;9122;48.406;9.984;2022-08-05T05:54:00;4.85;;;4.22;;
17993;SDS011;9122;48.406;9.984;2022-08-05T05:56:44;4.35;;;4.05;;
17993;SDS011;9122;48.406;9.984;2022-08-05T05:59:29;6.60;;;4.05;;
17993;SDS011;9122;48.406;9.984;2022-08-05T06:02:13;3.83;;;3.58;;
17993;SDS011;9122;48.406;9.984;2022-08-05T06:04:58;4.50;;;4.13;;
17993;SDS011;9122;48.406;9.984;2022-08-05T06:07:43;3.88;;;3.65;;
17993;SDS011;9122;48.406;9.984;2022-08-05T06:10:28;4.95;;;3.67;;
17993;SDS011;9122;48.406;9.984;2022-08-05T06:13:13;3.60;;;3.40;;
17993;SDS011;9122;48.406;9.984;2022-08-05T06:15:58;4.47;;;4.07;;
17993;SDS011;9122;48.406;9.984;2022-08-05T06:18:43;3.95;;;3.65;;
17993;SDS011;9122;48.406;9.984;2022-08-05T06:21:27;4.53;;;4.22;;
17993;SDS011;9122;48.406;9.984;2022-08-05T06:24:15;3.88;;;3.67;;
17993;SDS011;9122;48.406;9.984;2022-08-05T06:26:59;3.90;;;3.60;;
17993;SDS011;9122;48.406;9.984;2022-08-05T06:29:44;5.28;;;4.20;;
17993;SDS011;9122;48.406;9.984;2022-08-05T06:32:29;4.55;;;4.15;;
17993;SDS011;9122;48.406;9.984;2022-08-05T06:35:13;9.88;;;4.40;;
17993;SDS011;9122;48.406;9.984;2022-08-05T06:37:58;3.85;;;3.63;;
17993;SDS011;9122;48.406;9.984;2022-08-05T06:40:42;5.28;;;4.00;;
17993;SDS011;9122;48.406;9.984;2022-08-05T06:43:27;3.80;;;3.47;;
17993;SDS011;9122;48.406;9.984;2022-08-05T06:46:12;3.97;;;3.60;;
17993;SDS011;9122;48.406;9.984;2022-08-05T06:48:56;4.82;;;4.30;;
17993;SDS011;9122;48.406;9.984;2022-08-05T06:51:41;5.07;;;3.85;;
17993;SDS011;9122;48.406;9.984;2022-08-05T06:54:26;4.10;;;3.80;;
17993;SDS011;9122;48.406;9.984;2022-08-05T06:57:11;4.88;;;4.28;;
17993;SDS011;9122;48.406;9.984;2022-08-05T06:59:57;4.63;;;4.32;;
17993;SDS011;9122;48.406;9.984;2022-08-05T07:02:42;6.22;;;4.30;;
17993;SDS011;9122;48.406;9.984;2022-08-05T07:05:30;4.68;;;4.28;;
17993;SDS011;9122;48.406;9.984;2022-08-05T07:08:14;3.88;;;3.58;;
17993;SDS011;9122;48.406;9.984;2022-08-05T07:10:59;4.40;;;3.90;;
17993;SDS011;9122;48.406;9.984;2022-08-05T07:13:43;4.95;;;4.60;;
17993;SDS011;9122;48.406;9.984;2022-08-05T07:16:47;4.43;;;4.05;;
17993;SDS011;9122;48.406;9.984;2022-08-05T07:19:31;6.32;;;4.55;;
17993;SDS011;9122;48.406;9.984;2022-08-05T07:22:16;4.47;;;4.15;;
17993;SDS011;9122;48.406;9.984;2022-08-05T07:25:05;4.40;;;4.00;;
17993;SDS011;9122;48.406;9.984;2022-08-05T07:27:51;8.75;;;3.75;;
17993;SDS011;9122;48.406;9.984;2022-08-05T07:30:37;4.03;;;3.47;;
17993;SDS011;9122;48.406;9.984;2022-08-05T07:33:21;4.40;;;3.97;;
17993;SDS011;9122;48.406;9.984;2022-08-05T07:36:06;3.65;;;3.38;;
17993;SDS011;9122;48.406;9.984;2022-08-05T07:38:50;3.67;;;3.20;;
17993;SDS011;9122;48.406;9.984;2022-08-05T07:41:35;3.70;;;3.47;;
17993;SDS011;9122;48.406;9.984;2022-08-05T07:44:19;3.40;;;3.13;;
17993;SDS011;9122;48.406;9.984;2022-08-05T07:47:04;3.35;;;3.13;;
17993;SDS011;9122;48.406;9.984;2022-08-05T07:49:49;3.30;;;3.10;;
17993;SDS011;9122;48.406;9.984;2022-08-05T07:52:38;3.47;;;3.28;;
17993;SDS011;9122;48.406;9.984;2022-08-05T07:55:24;2.83;;;2.63;;
17993;SDS011;9122;48.406;9.984;2022-08-05T07:58:09;4.85;;;3.42;;
17993;SDS011;9122;48.406;9.984;2022-08-05T08:00:53;4.03;;;3.17;;
17993;SDS011;9122;48.406;9.984;2022-08-05T08:03:37;3.78;;;3.47;;
17993;SDS011;9122;48.406;9.984;2022-08-05T08:06:22;3.90;;;3.50;;
17993;SDS011;9122;48.406;9.984;2022-08-05T08:09:06;3.47;;;3.17;;
17993;SDS011;9122;48.406;9.984;2022-08-05T08:11:51;3.10;;;2.90;;
17993;SDS011;9122;48.406;9.984;2022-08-05T08:14:36;5.90;;;4.05;;
17993;SDS011;9122;48.406;9.984;2022-08-05T08:17:20;3.38;;;3.08;;
17993;SDS011;9122;48.406;9.984;2022-08-05T08:20:05;3.22;;;3.03;;
17993;SDS011;9122;48.406;9.984;2022-08-05T08:22:56;2.95;;;2.75;;
17993;SDS011;9122;48.406;9.984;2022-08-05T08:25:42;3.85;;;2.75;;
17993;SDS011;9122;48.406;9.984;2022-08-05T08:28:27;2.58;;;2.47;;
17993;SDS011;9122;48.406;9.984;2022-08-05T08:31:12;3.20;;;2.65;;
17993;SDS011;9122;48.406;9.984;2022-08-05T08:33:56;2.97;;;2.33;;
17993;SDS011;9122;48.406;9.984;2022-08-05T08:36:41;2.40;;;2.20;;
17993;SDS011;9122;48.406;9.984;2022-08-05T08:39:26;2.60;;;2.50;;
17993;SDS011;9122;48.406;9.984;2022-08-05T08:42:10;2.00;;;1.90;;
17993;SDS011;9122;48.406;9.984;2022-08-05T08:44:56;2.63;;;2.53;;
17993;SDS011;9122;48.406;9.984;2022-08-05T08:47:41;2.72;;;2.50;;
17993;SDS011;9122;48.406;9.984;2022-08-05T08:50:29;3.40;;;3.10;;
17993;SDS011;9122;48.406;9.984;2022-08-05T08:53:16;3.20;;;3.00;;
17993;SDS011;9122;48.406;9.984;2022-08-05T08:56:02;3.20;;;3.00;;
17993;SDS011;9122;48.406;9.984;2022-08-05T08:58:50;4.88;;;3.15;;
17993;SDS011;9122;48.406;9.984;2022-08-05T09:01:35;2.90;;;2.67;;
17993;SDS011;9122;48.406;9.984;2022-08-05T09:04:20;4.13;;;2.95;;
17993;SDS011;9122;48.406;9.984;2022-08-05T09:07:07;3.10;;;2.90;;
17993;SDS011;9122;48.406;9.984;2022-08-05T09:09:52;3.53;;;3.33;;
17993;SDS011;9122;48.406;9.984;2022-08-05T09:12:37;3.33;;;3.13;;
17993;SDS011;9122;48.406;9.984;2022-08-05T09:15:21;3.22;;;3.03;;
17993;SDS011;9122;48.406;9.984;2022-08-05T09:18:07;2.72;;;2.55;;
17993;SDS011;9122;48.406;9.984;2022-08-05T09:20:52;2.80;;;2.55;;
17993;SDS011;9122;48.406;9.984;2022-08-05T09:23:37;2.90;;;2.72;;
17993;SDS011;9122;48.406;9.984;2022-08-05T09:26:23;6.78;;;2.53;;
17993;SDS011;9122;48.406;9.984;2022-08-05T09:29:07;3.03;;;2.55;;
17993;SDS011;9122;48.406;9.984;2022-08-05T09:32:02;2.70;;;2.50;;
17993;SDS011;9122;48.406;9.984;2022-08-05T09:37:32;2.80;;;2.60;;
17993;SDS011;9122;48.406;9.984;2022-08-05T09:43:35;2.20;;;2.10;;
17993;SDS011;9122;48.406;9.984;2022-08-05T09:49:21;2.15;;;2.05;;
17993;SDS011;9122;48.406;9.984;2022-08-05T09:55:26;2.17;;;2.08;;
17993;SDS011;9122;48.406;9.984;2022-08-05T09:58:11;2.95;;;2.75;;
17993;SDS011;9122;48.406;9.984;2022-08-05T10:01:01;2.67;;;2.25;;
17993;SDS011;9122;48.406;9.984;2022-08-05T10:03:58;2.92;;;2.67;;
17993;SDS011;9122;48.406;9.984;2022-08-05T10:06:53;2.35;;;2.25;;
17993;SDS011;9122;48.406;9.984;2022-08-05T10:09:40;2.08;;;1.98;;
17993;SDS011;9122;48.406;9.984;2022-08-05T10:12:39;2.15;;;2.05;;
17993;SDS011;9122;48.406;9.984;2022-08-05T10:18:13;2.60;;;2.40;;
17993;SDS011;9122;48.406;9.984;2022-08-05T10:21:03;2.50;;;2.40;;
17993;SDS011;9122;48.406;9.984;2022-08-05T10:23:49;2.22;;;2.13;;
17993;SDS011;9122;48.406;9.984;2022-08-05T10:26:34;2.50;;;2.40;;
17993;SDS011;9122;48.406;9.984;2022-08-05T10:29:20;2.40;;;2.22;;
17993;SDS011;9122;48.406;9.984;2022-08-05T10:32:05;2.65;;;2.45;;
17993;SDS011;9122;48.406;9.984;2022-08-05T10:34:50;2.88;;;2.67;;
17993;SDS011;9122;48.406;9.984;2022-08-05T10:37:35;2.55;;;2.35;;
17993;SDS011;9122;48.406;9.984;2022-08-05T10:47:33;3.00;;;2.75;;
17993;SDS011;9122;48.406;9.984;2022-08-05T10:50:31;2.42;;;2.22;;
17993;SDS011;9122;48.406;9.984;2022-08-05T10:53:59;2.17;;;2.08;;
17993;SDS011;9122;48.406;9.984;2022-08-05T10:56:26;2.70;;;2.60;;
17993;SDS011;9122;48.406;9.984;2022-08-05T10:59:23;2.33;;;2.17;;
17993;SDS011;9122;48.406;9.984;2022-08-05T11:02:10;2.47;;;2.33;;
17993;SDS011;9122;48.406;9.984;2022-08-05T11:04:56;2.58;;;2.45;;
17993;SDS011;9122;48.406;9.984;2022-08-05T11:07:54;2.90;;;2.60;;
17993;SDS011;9122;48.406;9.984;2022-08-05T11:10:43;3.35;;;2.42;;
17993;SDS011;9122;48.406;9.984;2022-08-05T11:13:38;2.10;;;2.00;;
17993;SDS011;9122;48.406;9.984;2022-08-05T11:16:24;2.50;;;2.40;;
17993;SDS011;9122;48.406;9.984;2022-08-05T11:25:35;2.50;;;2.40;;
17993;SDS011;9122;48.406;9.984;2022-08-05T11:42:40;2.28;;;2.10;;
17993;SDS011;9122;48.406;9.984;2022-08-05T11:45:29;2.45;;;2.30;;
17993;SDS011;9122;48.406;9.984;2022-08-05T11:48:13;2.67;;;2.47;;
17993;SDS011;9122;48.406;9.984;2022-08-05T11:50:58;2.88;;;2.20;;
17993;SDS011;9122;48.406;9.984;2022-08-05T11:53:42;2.58;;;2.45;;
17993;SDS011;9122;48.406;9.984;2022-08-05T11:59:32;2.80;;;2.10;;
17993;SDS011;9122;48.406;9.984;2022-08-05T12:02:22;2.30;;;2.20;;
17993;SDS011;9122;48.406;9.984;2022-08-05T12:05:08;2.95;;;2.75;;
17993;SDS011;9122;48.406;9.984;2022-08-05T12:07:55;3.60;;;2.72;;
17993;SDS011;9122;48.406;9.984;2022-08-05T12:10:40;2.60;;;2.50;;
17993;SDS011;9122;48.406;9.984;2022-08-05T12:13:25;2.75;;;2.55;;
17993;SDS011;9122;48.406;9.984;2022-08-05T12:16:16;2.30;;;2.20;;
17993;SDS011;9122;48.406;9.984;2022-08-05T12:19:02;3.25;;;2.40;;
17993;SDS011;9122;48.406;9.984;2022-08-05T12:21:48;2.58;;;2.47;;
17993;SDS011;9122;48.406;9.984;2022-08-05T12:24:33;2.58;;;2.47;;
17993;SDS011;9122;48.406;9.984;2022-08-05T12:27:26;2.60;;;2.50;;
17993;SDS011;9122;48.406;9.984;2022-08-05T12:30:12;2.38;;;2.28;;
17993;SDS011;9122;48.406;9.984;2022-08-05T12:32:56;7.22;;;2.75;;
17993;SDS011;9122;48.406;9.984;2022-08-05T12:35:41;3.05;;;2.85;;
17993;SDS011;9122;48.406;9.984;2022-08-05T12:38:26;3.13;;;2.92;;
17993;SDS011;9122;48.406;9.984;2022-08-05T12:41:11;3.85;;;3.55;;
17993;SDS011;9122;48.406;9.984;2022-08-05T12:44:00;2.33;;;2.22;;
17993;SDS011;9122;48.406;9.984;2022-08-05T12:46:50;2.58;;;2.47;;
17993;SDS011;9122;48.406;9.984;2022-08-05T12:49:43;2.63;;;2.53;;
17993;SDS011;9122;48.406;9.984;2022-08-05T12:52:33;3.30;;;3.00;;
17993;SDS011;9122;48.406;9.984;2022-08-05T12:55:22;3.33;;;3.13;;
17993;SDS011;9122;48.406;9.984;2022-08-05T12:58:08;2.65;;;2.47;;
17993;SDS011;9122;48.406;9.984;2022-08-05T13:01:07;4.72;;;2.63;;
17993;SDS011;9122;48.406;9.984;2022-08-05T13:03:52;2.72;;;2.53;;
17993;SDS011;9122;48.406;9.984;2022-08-05T13:06:39;2.83;;;2.63;;
17993;SDS011;9122;48.406;9.984;2022-08-05T13:09:26;2.50;;;2.33;;
17993;SDS011;9122;48.406;9.984;2022-08-05T13:12:12;2.55;;;2.35;;
17993;SDS011;9122;48.406;9.984;2022-08-05T13:14:58;2.90;;;2.75;;
17993;SDS011;9122;48.406;9.984;2022-08-05T13:17:52;2.80;;;2.63;;
17993;SDS011;9122;48.406;9.984;2022-08-05T13:20:37;3.05;;;2.85;;
17993;SDS011;9122;48.406;9.984;2022-08-05T13:23:22;2.60;;;2.50;;
17993;SDS011;9122;48.406;9.984;2022-08-05T13:26:06;2.92;;;2.72;;
17993;SDS011;9122;48.406;9.984;2022-08-05T13:28:51;2.60;;;2.50;;
17993;SDS011;9122;48.406;9.984;2022-08-05T13:31:36;2.80;;;2.60;;
17993;SDS011;9122;48.406;9.984;2022-08-05T13:34:20;2.88;;;2.67;;
17993;SDS011;9122;48.406;9.984;2022-08-05T13:37:04;3.00;;;2.85;;
17993;SDS011;9122;48.406;9.984;2022-08-05T13:39:51;2.85;;;2.67;;
17993;SDS011;9122;48.406;9.984;2022-08-05T13:42:37;2.80;;;2.60;;
17993;SDS011;9122;48.406;9.984;2022-08-05T13:45:22;3.08;;;2.88;;
17993;SDS011;9122;48.406;9.984;2022-08-05T13:48:06;3.60;;;2.92;;
17993;SDS011;9122;48.406;9.984;2022-08-05T13:50:51;3.15;;;2.95;;
17993;SDS011;9122;48.406;9.984;2022-08-05T13:53:35;4.13;;;3.75;;
17993;SDS011;9122;48.406;9.984;2022-08-05T13:56:20;2.63;;;2.53;;
17993;SDS011;9122;48.406;9.984;2022-08-05T13:59:05;2.85;;;2.67;;
17993;SDS011;9122;48.406;9.984;2022-08-05T14:01:49;2.55;;;2.40;;
17993;SDS011;9122;48.406;9.984;2022-08-05T14:04:43;3.38;;;2.83;;
17993;SDS011;9122;48.406;9.984;2022-08-05T14:07:48;2.88;;;2.67;;
17993;SDS011;9122;48.406;9.984;2022-08-05T14:10:36;2.70;;;2.50;;
17993;SDS011;9122;48.406;9.984;2022-08-05T14:13:21;2.30;;;2.20;;
17993;SDS011;9122;48.406;9.984;2022-08-05T14:16:07;3.47;;;3.28;;
17993;SDS011;9122;48.406;9.984;2022-08-05T14:18:51;3.63;;;3.22;;
17993;SDS011;9122;48.406;9.984;2022-08-05T14:21:36;3.28;;;2.60;;
17993;SDS011;9122;48.406;9.984;2022-08-05T14:24:20;3.20;;;2.90;;
17993;SDS011;9122;48.406;9.984;2022-08-05T14:27:05;4.88;;;4.10;;
17993;SDS011;9122;48.406;9.984;2022-08-05T14:29:50;3.13;;;2.97;;
17993;SDS011;9122;48.406;9.984;2022-08-05T14:32:34;2.90;;;2.80;;
17993;SDS011;9122;48.406;9.984;2022-08-05T14:35:19;3.20;;;3.00;;
17993;SDS011;9122;48.406;9.984;2022-08-05T14:38:04;3.38;;;2.70;;
17993;SDS011;9122;48.406;9.984;2022-08-05T14:40:48;3.25;;;3.05;;
17993;SDS011;9122;48.406;9.984;2022-08-05T14:43:36;3.08;;;2.88;;
17993;SDS011;9122;48.406;9.984;2022-08-05T14:46:21;3.03;;;2.83;;
17993;SDS011;9122;48.406;9.984;2022-08-05T14:49:07;2.95;;;2.85;;
17993;SDS011;9122;48.406;9.984;2022-08-05T14:51:51;3.10;;;2.90;;
17993;SDS011;9122;48.406;9.984;2022-08-05T14:54:36;3.47;;;3.28;;
17993;SDS011;9122;48.406;9.984;2022-08-05T14:57:20;3.70;;;3.40;;
17993;SDS011;9122;48.406;9.984;2022-08-05T15:00:05;2.70;;;2.60;;
17993;SDS011;9122;48.406;9.984;2022-08-05T15:02:50;4.60;;;2.88;;
17993;SDS011;9122;48.406;9.984;2022-08-05T15:05:35;4.80;;;3.35;;
17993;SDS011;9122;48.406;9.984;2022-08-05T15:08:19;2.90;;;2.72;;
17993;SDS011;9122;48.406;9.984;2022-08-05T15:11:04;2.95;;;2.83;;
17993;SDS011;9122;48.406;9.984;2022-08-05T15:13:50;6.13;;;3.53;;
17993;SDS011;9122;48.406;9.984;2022-08-05T15:16:35;3.20;;;3.00;;
17993;SDS011;9122;48.406;9.984;2022-08-05T15:19:20;4.45;;;3.17;;
17993;SDS011;9122;48.406;9.984;2022-08-05T15:22:04;3.55;;;3.30;;
17993;SDS011;9122;48.406;9.984;2022-08-05T15:24:51;3.42;;;3.13;;
17993;SDS011;9122;48.406;9.984;2022-08-05T15:27:35;3.10;;;2.90;;
17993;SDS011;9122;48.406;9.984;2022-08-05T15:30:20;2.97;;;2.67;;
17993;SDS011;9122;48.406;9.984;2022-08-05T15:33:04;3.75;;;3.53;;
17993;SDS011;9122;48.406;9.984;2022-08-05T15:35:49;3.50;;;3.30;;
17993;SDS011;9122;48.406;9.984;2022-08-05T15:38:34;3.45;;;3.25;;
17993;SDS011;9122;48.406;9.984;2022-08-05T15:41:18;3.20;;;3.00;;
17993;SDS011;9122;48.406;9.984;2022-08-05T15:44:06;3.50;;;3.30;;
17993;SDS011;9122;48.406;9.984;2022-08-05T15:46:51;2.92;;;2.72;;
17993;SDS011;9122;48.406;9.984;2022-08-05T15:49:35;3.30;;;3.10;;
17993;SDS011;9122;48.406;9.984;2022-08-05T15:52:20;3.47;;;3.22;;
17993;SDS011;9122;48.406;9.984;2022-08-05T15:55:05;3.97;;;3.58;;
17993;SDS011;9122;48.406;9.984;2022-08-05T15:57:51;3.30;;;3.10;;
17993;SDS011;9122;48.406;9.984;2022-08-05T16:00:36;3.95;;;3.65;;
17993;SDS011;9122;48.406;9.984;2022-08-05T16:03:21;3.55;;;3.28;;
17993;SDS011;9122;48.406;9.984;2022-08-05T16:06:05;3.58;;;3.28;;
17993;SDS011;9122;48.406;9.984;2022-08-05T16:08:50;3.25;;;3.05;;
17993;SDS011;9122;48.406;9.984;2022-08-05T16:11:35;3.35;;;3.00;;
17993;SDS011;9122;48.406;9.984;2022-08-05T16:14:20;3.10;;;2.92;;
17993;SDS011;9122;48.406;9.984;2022-08-05T16:17:06;3.38;;;3.20;;
17993;SDS011;9122;48.406;9.984;2022-08-05T16:19:50;3.88;;;3.05;;
17993;SDS011;9122;48.406;9.984;2022-08-05T16:22:35;2.80;;;2.60;;
17993;SDS011;9122;48.406;9.984;2022-08-05T16:25:19;2.95;;;2.75;;
17993;SDS011;9122;48.406;9.984;2022-08-05T16:28:04;3.00;;;2.85;;
17993;SDS011;9122;48.406;9.984;2022-08-05T16:30:49;3.60;;;3.10;;
17993;SDS011;9122;48.406;9.984;2022-08-05T16:33:35;3.45;;;3.25;;
17993;SDS011;9122;48.406;9.984;2022-08-05T16:36:20;3.47;;;3.10;;
17993;SDS011;9122;48.406;9.984;2022-08-05T16:39:05;3.42;;;3.22;;
17993;SDS011;9122;48.406;9.984;2022-08-05T16:41:49;3.22;;;3.03;;
17993;SDS011;9122;48.406;9.984;2022-08-05T16:44:34;4.18;;;3.10;;
17993;SDS011;9122;48.406;9.984;2022-08-05T16:47:18;3.22;;;3.03;;
17993;SDS011;9122;48.406;9.984;2022-08-05T16:50:03;7.40;;;3.03;;
17993;SDS011;9122;48.406;9.984;2022-08-05T16:52:49;3.42;;;3.13;;
17993;SDS011;9122;48.406;9.984;2022-08-05T16:55:33;2.97;;;2.78;;
17993;SDS011;9122;48.406;9.984;2022-08-05T16:58:18;3.03;;;2.85;;
17993;SDS011;9122;48.406;9.984;2022-08-05T17:01:03;2.75;;;2.60;;
17993;SDS011;9122;48.406;9.984;2022-08-05T17:03:47;3.35;;;2.90;;
17993;SDS011;9122;48.406;9.984;2022-08-05T17:06:33;3.28;;;3.08;;
17993;SDS011;9122;48.406;9.984;2022-08-05T17:09:18;2.47;;;2.38;;
17993;SDS011;9122;48.406;9.984;2022-08-05T17:12:02;3.17;;;2.97;;
17993;SDS011;9122;48.406;9.984;2022-08-05T17:14:47;3.22;;;3.03;;
17993;SDS011;9122;48.406;9.984;2022-08-05T17:17:32;3.00;;;2.85;;
17993;SDS011;9122;48.406;9.984;2022-08-05T17:20:16;3.28;;;2.90;;
17993;SDS011;9122;48.406;9.984;2022-08-05T17:23:01;2.95;;;2.75;;
17993;SDS011;9122;48.406;9.984;2022-08-05T17:25:46;2.80;;;2.60;;
17993;SDS011;9122;48.406;9.984;2022-08-05T17:28:30;2.92;;;2.70;;
17993;SDS011;9122;48.406;9.984;2022-08-05T17:31:15;3.10;;;2.90;;
17993;SDS011;9122;48.406;9.984;2022-08-05T17:34:00;4.55;;;2.80;;
17993;SDS011;9122;48.406;9.984;2022-08-05T17:36:45;7.65;;;3.38;;
17993;SDS011;9122;48.406;9.984;2022-08-05T17:39:29;2.38;;;2.28;;
17993;SDS011;9122;48.406;9.984;2022-08-05T17:42:14;6.75;;;2.72;;
17993;SDS011;9122;48.406;9.984;2022-08-05T17:44:59;3.20;;;2.90;;
17993;SDS011;9122;48.406;9.984;2022-08-05T17:47:44;3.33;;;2.70;;
17993;SDS011;9122;48.406;9.984;2022-08-05T17:50:29;4.18;;;3.38;;
17993;SDS011;9122;48.406;9.984;2022-08-05T17:53:13;3.70;;;3.50;;